Time;durP1;ratioP1;P1;durP2;ratioP2;P2;SDS_P1;SDS_P2;PMS_P1;PMS_P2;Temp;Humidity;BMP_temperature;BMP_pressure;BME280_temperature;BME280_humidity;BME280_pressure;Samples;Min_cycle;Max_cycle;Signal;HPM_P1;HPM_P2
2023/12/03 00:01:56;;;;;;;28.00;13.80;;;;;;;-2.07;93.36;99793.14;107316;281;95590;-52
2023/12/03 00:04:33;;;;;;;35.10;17.00;;;;;;;-2.10;93.42;99795.14;107215;281;155032;-53
2023/12/03 00:07:10;;;;;;;31.80;15.80;;;;;;;-2.05;93.35;99792.39;107302;281;119679;-53
2023/12/03 00:09:51;;;;;;;29.60;14.80;;;;;;;-2.08;93.39;99793.71;107359;281;105699;-53
2023/12/03 00:12:32;;;;;;;31.60;15.70;;;;;;;-2.11;93.48;99790.92;107119;281;154919;-54
2023/12/03 00:15:11;;;;;;;36.80;16.90;;;;;;;-2.08;93.45;99792.27;107332;281;95607;-55
2023/12/03 00:17:46;;;;;;;31.30;15.30;;;;;;;-2.07;93.45;99797.13;107158;281;154702;-55
2023/12/03 00:20:27;;;;;;;32.10;16.40;;;;;;;-2.09;93.42;99801.02;107328;281;120967;-51
2023/12/03 00:23:07;;;;;;;35.40;18.70;;;;;;;-2.11;93.45;99803.89;107179;281;155205;-52
2023/12/03 00:25:49;;;;;;;34.70;17.00;;;;;;;-2.13;93.50;99804.00;107328;281;115473;-52
2023/12/03 00:28:29;;;;;;;30.90;15.10;;;;;;;-2.12;93.49;99807.29;107208;281;155286;-51
2023/12/03 00:31:07;;;;;;;32.20;16.00;;;;;;;-2.13;93.52;99811.57;107322;281;97213;-57
2023/12/03 00:33:45;;;;;;;30.20;15.60;;;;;;;-2.13;93.53;99814.59;107323;281;121247;-53
2023/12/03 00:36:25;;;;;;;31.60;17.40;;;;;;;-2.13;93.58;99815.97;107211;282;155029;-53
2023/12/03 00:39:06;;;;;;;29.10;15.40;;;;;;;-2.10;93.70;99817.17;107351;281;113191;-52
2023/12/03 00:41:45;;;;;;;30.50;15.80;;;;;;;-2.07;93.68;99819.27;107241;281;154963;-51
2023/12/03 00:44:29;;;;;;;34.60;16.80;;;;;;;-2.12;93.62;99826.31;107345;281;97878;-52
2023/12/03 00:47:08;;;;;;;36.40;17.10;;;;;;;-2.11;93.65;99825.53;107200;281;154875;-52
2023/12/03 00:49:51;;;;;;;33.60;16.20;;;;;;;-2.09;93.65;99831.77;107333;281;105119;-53
2023/12/03 00:52:30;;;;;;;30.10;15.00;;;;;;;-2.06;93.71;99832.73;107190;281;155014;-52
2023/12/03 00:55:08;;;;;;;33.00;16.40;;;;;;;-2.02;93.56;99830.61;107384;281;94416;-52
2023/12/03 00:57:46;;;;;;;33.20;15.90;;;;;;;-1.98;93.50;99832.92;107371;281;97184;-51
2023/12/03 01:00:24;;;;;;;29.60;15.70;;;;;;;-1.95;93.46;99835.84;107236;281;156078;-54
2023/12/03 01:03:05;;;;;;;28.20;15.40;;;;;;;-1.93;93.43;99839.77;107253;282;106233;-54
2023/12/03 01:05:46;;;;;;;29.70;14.00;;;;;;;-1.93;93.53;99846.15;107204;281;156102;-54
2023/12/03 01:08:28;;;;;;;26.50;12.90;;;;;;;-1.98;93.59;99855.52;107339;281;95875;-52
2023/12/03 01:11:08;;;;;;;24.60;14.00;;;;;;;-2.00;93.65;99861.34;107204;281;155863;-54
2023/12/03 01:13:52;;;;;;;30.10;14.90;;;;;;;-1.91;93.47;99871.05;107300;281;120374;-57
2023/12/03 01:16:38;;;;;;;31.40;14.90;;;;;;;-1.89;93.43;99877.00;107204;281;155913;-57
2023/12/03 01:19:21;;;;;;;28.40;15.80;;;;;;;-1.87;93.44;99878.46;107160;275;114439;-53
2023/12/03 01:22:07;;;;;;;29.40;14.20;;;;;;;-1.86;93.40;99883.45;107290;282;94767;-52
2023/12/03 01:24:48;;;;;;;30.40;14.50;;;;;;;-1.79;93.35;99881.13;107162;282;96779;-58
2023/12/03 01:27:26;;;;;;;27.10;13.90;;;;;;;-1.80;93.31;99883.31;107270;282;121013;-58
2023/12/03 01:30:08;;;;;;;30.30;15.00;;;;;;;-1.80;93.22;99883.13;107129;282;155377;-53
2023/12/03 01:32:48;;;;;;;28.30;13.70;;;;;;;-1.75;93.27;99878.01;107358;282;114757;-52
2023/12/03 01:35:30;;;;;;;27.70;14.40;;;;;;;-1.77;93.23;99880.14;107141;282;154561;-53
2023/12/03 01:38:09;;;;;;;24.30;13.90;;;;;;;-1.78;93.20;99883.38;107328;282;96937;-53
2023/12/03 01:40:54;;;;;;;27.40;13.10;;;;;;;-1.86;93.32;99885.42;107201;282;155432;-54
2023/12/03 01:43:33;;;;;;;27.20;14.80;;;;;;;-1.85;93.26;99884.95;107271;282;105341;-55
2023/12/03 01:46:10;;;;;;;26.70;14.30;;;;;;;-1.85;93.25;99887.30;107299;282;114726;-55
2023/12/03 01:48:50;;;;;;;31.20;15.30;;;;;;;-1.88;93.33;99886.63;107282;282;96145;-54
2023/12/03 01:51:27;;;;;;;28.60;15.00;;;;;;;-1.87;93.23;99888.87;107338;282;96086;-53
2023/12/03 01:54:07;;;;;;;29.10;14.30;;;;;;;-1.89;93.27;99890.45;107162;282;155896;-52
2023/12/03 01:56:44;;;;;;;27.50;14.10;;;;;;;-1.90;93.29;99886.83;107322;282;105359;-52
2023/12/03 01:59:30;;;;;;;27.20;14.40;;;;;;;-1.87;93.23;99897.00;107155;282;154534;-52
2023/12/03 02:02:07;;;;;;;25.00;13.30;;;;;;;-1.87;93.20;99896.98;107274;282;95749;-52
2023/12/03 02:04:46;;;;;;;30.80;15.00;;;;;;;-1.88;93.30;99903.90;107182;282;154930;-51
2023/12/03 02:07:23;;;;;;;28.10;14.90;;;;;;;-1.88;93.28;99900.37;107256;282;120490;-51
2023/12/03 02:10:07;;;;;;;23.90;12.70;;;;;;;-1.88;93.18;99903.55;107316;282;105407;-51
2023/12/03 02:12:41;;;;;;;25.70;14.50;;;;;;;-1.90;93.04;99902.01;107122;282;155687;-52
2023/12/03 02:15:21;;;;;;;26.20;15.00;;;;;;;-1.96;93.12;99907.79;107314;282;91492;-54
2023/12/03 02:18:00;;;;;;;26.10;14.30;;;;;;;-1.97;93.24;99911.20;107186;282;154525;-55
2023/12/03 02:20:39;;;;;;;30.40;14.80;;;;;;;-1.97;93.26;99912.10;107363;281;120419;-53
2023/12/03 02:23:22;;;;;;;29.00;15.30;;;;;;;-1.95;93.20;99922.31;107230;281;156201;-53
2023/12/03 02:25:59;;;;;;;29.50;15.80;;;;;;;-1.97;93.33;99924.41;107308;281;114647;-55
2023/12/03 02:28:42;;;;;;;30.20;15.40;;;;;;;-1.94;93.38;99921.66;107196;280;155353;-55
2023/12/03 02:31:18;;;;;;;26.90;15.00;;;;;;;-1.92;93.44;99926.16;107327;280;99735;-57
2023/12/03 02:34:03;;;;;;;29.50;16.00;;;;;;;-1.91;93.44;99932.40;107341;280;119117;-51
2023/12/03 02:36:37;;;;;;;30.40;16.10;;;;;;;-1.85;93.43;99937.78;107233;280;155831;-53
2023/12/03 02:39:11;;;;;;;26.60;14.80;;;;;;;-1.83;93.30;99941.46;107369;281;114456;-55
2023/12/03 02:41:48;;;;;;;29.30;16.40;;;;;;;-1.85;93.37;99946.02;107208;280;156267;-55
2023/12/03 02:44:23;;;;;;;31.20;16.30;;;;;;;-1.84;93.29;99950.74;107338;280;97484;-58
2023/12/03 02:47:04;;;;;;;32.40;17.10;;;;;;;-1.84;93.32;99955.86;107262;280;156011;-57
2023/12/03 02:49:45;;;;;;;30.90;16.60;;;;;;;-1.84;93.41;99962.41;107405;281;103885;-55
2023/12/03 02:52:29;;;;;;;31.40;17.50;;;;;;;-1.84;93.34;99965.95;107241;281;155870;-55
2023/12/03 02:55:10;;;;;;;31.80;17.80;;;;;;;-1.85;93.36;99972.70;107392;280;93049;-52
2023/12/03 02:57:46;;;;;;;33.30;18.70;;;;;;;-1.83;93.35;99970.08;107389;280;98208;-52
2023/12/03 03:00:22;;;;;;;33.90;18.70;;;;;;;-1.87;93.43;99975.10;107246;280;154111;-57
2023/12/03 03:03:02;;;;;;;34.90;18.40;;;;;;;-1.91;93.35;99975.84;107344;281;105718;-57
2023/12/03 03:05:44;;;;;;;34.90;18.20;;;;;;;-1.93;93.33;99981.28;107230;280;155052;-55
2023/12/03 03:08:20;;;;;;;36.20;19.30;;;;;;;-1.99;93.24;99981.91;107393;280;95904;-54
2023/12/03 03:10:57;;;;;;;35.40;18.10;;;;;;;-2.05;93.17;99988.25;107233;280;156271;-57
2023/12/03 03:13:34;;;;;;;34.20;19.00;;;;;;;-2.11;93.14;99992.95;107313;281;120465;-52
2023/12/03 03:16:12;;;;;;;40.80;19.70;;;;;;;-2.12;93.16;99997.39;107344;281;105115;-51
2023/12/03 03:18:51;;;;;;;39.40;19.60;;;;;;;-2.16;93.08;100005.52;107367;280;114389;-54
2023/12/03 03:21:43;;;;;;;35.50;18.90;;;;;;;-2.18;93.03;100012.55;107339;280;94339;-55
2023/12/03 03:24:25;;;;;;;37.90;20.80;;;;;;;-2.21;93.15;100019.83;107148;280;155238;-57
2023/12/03 03:27:03;;;;;;;33.50;19.30;;;;;;;-2.20;93.16;100021.70;107379;281;121666;-57
2023/12/03 03:29:47;;;;;;;38.00;21.20;;;;;;;-2.22;93.19;100022.20;107264;280;154701;-55
2023/12/03 03:32:26;;;;;;;34.50;19.60;;;;;;;-2.21;93.31;100021.61;107357;280;114188;-55
2023/12/03 03:35:05;;;;;;;37.00;20.20;;;;;;;-2.19;93.38;100025.14;107241;280;154697;-53
2023/12/03 03:37:43;;;;;;;39.00;20.90;;;;;;;-2.14;93.35;100029.55;107349;281;98726;-53
2023/12/03 03:40:19;;;;;;;35.20;20.70;;;;;;;-2.18;93.40;100030.48;107350;281;120186;-51
2023/12/03 03:42:58;;;;;;;32.90;19.10;;;;;;;-2.15;93.37;100031.55;107292;281;104423;-51
2023/12/03 03:45:40;;;;;;;35.60;19.30;;;;;;;-2.12;93.31;100031.65;107412;281;113909;-53
2023/12/03 03:48:17;;;;;;;34.40;18.60;;;;;;;-2.11;93.31;100034.03;107267;280;155737;-53
2023/12/03 03:50:55;;;;;;;36.60;19.20;;;;;;;-2.10;93.20;100036.08;107396;280;98252;-58
2023/12/03 03:53:36;;;;;;;33.80;18.80;;;;;;;-2.08;93.21;100037.31;107196;280;155070;-52
2023/12/03 03:56:15;;;;;;;32.10;18.70;;;;;;;-2.03;93.24;100040.83;107322;281;105749;-52
2023/12/03 03:58:54;;;;;;;32.30;18.50;;;;;;;-2.00;93.16;100045.55;107246;280;155719;-56
2023/12/03 04:01:32;;;;;;;31.10;18.00;;;;;;;-2.05;93.24;100045.03;107380;280;92833;-55
2023/12/03 04:04:08;;;;;;;35.10;18.10;;;;;;;-2.07;93.30;100042.36;107377;280;97234;-53
2023/12/03 04:06:48;;;;;;;31.20;17.40;;;;;;;-2.06;93.23;100042.49;107231;280;154136;-52
2023/12/03 04:09:24;;;;;;;36.80;19.10;;;;;;;-2.12;93.14;100049.09;107380;281;106150;-52
2023/12/03 04:12:03;;;;;;;34.20;16.60;;;;;;;-2.16;93.22;100044.88;107304;280;156253;-52
2023/12/03 04:14:41;;;;;;;35.30;18.90;;;;;;;-2.18;93.36;100044.85;107395;280;95040;-56
2023/12/03 04:17:24;;;;;;;33.70;18.10;;;;;;;-2.21;93.43;100044.34;107198;280;155657;-55
2023/12/03 04:20:08;;;;;;;36.20;19.10;;;;;;;-2.24;93.44;100046.83;107325;281;120195;-54
2023/12/03 04:22:53;;;;;;;35.30;18.70;;;;;;;-2.23;93.35;100054.20;107237;281;156443;-54
2023/12/03 04:25:38;;;;;;;34.90;19.20;;;;;;;-2.22;93.28;100059.05;107421;280;114013;-53
2023/12/03 04:28:20;;;;;;;40.10;19.20;;;;;;;-2.20;93.40;100066.27;107371;280;95671;-52
2023/12/03 04:30:55;;;;;;;37.50;18.90;;;;;;;-2.20;93.39;100065.39;106666;282;698005;-52
2023/12/03 04:33:38;;;;;;;39.40;20.00;;;;;;;-2.17;93.51;100062.86;107378;281;120052;-53
2023/12/03 04:36:21;;;;;;;36.90;19.50;;;;;;;-2.16;93.40;100066.36;107269;280;156062;-54
2023/12/03 04:38:59;;;;;;;37.60;19.20;;;;;;;-2.15;93.40;100068.39;107388;280;114463;-53
2023/12/03 04:41:47;;;;;;;38.60;20.10;;;;;;;-2.13;93.41;100076.00;107247;281;155962;-52
2023/12/03 04:44:32;;;;;;;41.50;19.50;;;;;;;-2.14;93.35;100072.15;107358;281;97543;-52
2023/12/03 04:47:13;;;;;;;37.00;19.10;;;;;;;-2.11;93.42;100073.94;107241;280;155923;-51
2023/12/03 04:49:57;;;;;;;40.90;19.40;;;;;;;-2.12;93.50;100075.52;107400;280;104456;-52
2023/12/03 04:52:38;;;;;;;39.20;20.10;;;;;;;-2.14;93.46;100078.34;107203;280;155267;-52
2023/12/03 04:55:15;;;;;;;45.00;22.70;;;;;;;-2.14;93.49;100084.72;107335;281;96138;-57
2023/12/03 04:57:57;;;;;;;42.30;19.50;;;;;;;-2.07;93.48;100092.27;107367;281;97064;-56
2023/12/03 05:00:38;;;;;;;42.40;20.10;;;;;;;-2.04;93.58;100095.78;107260;280;155621;-55
2023/12/03 05:03:24;;;;;;;42.90;21.20;;;;;;;-1.99;93.67;100097.86;107382;280;105945;-54
2023/12/03 05:06:04;;;;;;;45.20;20.20;;;;;;;-1.98;93.73;100101.60;107210;280;154861;-54
2023/12/03 05:08:46;;;;;;;43.50;21.30;;;;;;;-1.93;93.75;100107.63;107354;281;94914;-56
2023/12/03 05:11:24;;;;;;;45.20;21.60;;;;;;;-1.91;93.85;100108.65;107224;281;155345;-56
2023/12/03 05:14:03;;;;;;;44.70;20.80;;;;;;;-1.88;93.88;100111.09;107368;280;121102;-51
2023/12/03 05:16:37;;;;;;;45.10;21.30;;;;;;;-1.83;93.76;100115.60;107232;280;156298;-52
2023/12/03 05:19:21;;;;;;;42.30;20.40;;;;;;;-1.82;93.90;100118.23;107369;281;115034;-57
2023/12/03 05:22:03;;;;;;;;;;;;;;;-1.77;93.71;100126.19;107373;281;93618;-58
2023/12/03 05:24:43;;;;;;;37.20;18.00;;;;;;;-1.82;93.86;100126.14;107269;281;140058;-53
2023/12/03 05:27:27;;;;;;;38.80;18.00;;;;;;;-1.79;93.76;100125.91;107306;281;119340;-52
2023/12/03 05:30:01;;;;;;;42.60;19.30;;;;;;;-1.73;93.85;100135.38;107245;281;155066;-55
2023/12/03 05:32:34;;;;;;;;;;;;;;;-1.73;93.72;100135.56;107413;280;115074;-55
2023/12/03 05:35:15;;;;;;;40.20;17.80;;;;;;;-1.75;93.82;100139.23;107236;280;142506;-52
2023/12/03 05:37:58;;;;;;;39.60;17.80;;;;;;;-1.75;93.87;100141.17;107352;281;97359;-52
2023/12/03 05:40:36;;;;;;;42.40;19.80;;;;;;;-1.73;93.85;100142.96;107221;281;154867;-52
2023/12/03 05:43:16;;;;;;;39.40;18.60;;;;;;;-1.71;93.81;100144.92;107420;280;105371;-52
2023/12/03 05:46:00;;;;;;;41.30;18.80;;;;;;;-1.73;93.77;100150.41;107365;280;115059;-52
2023/12/03 05:48:39;;;;;;;40.10;18.50;;;;;;;-1.69;93.87;100154.80;107197;280;155665;-53
2023/12/03 05:51:14;;;;;;;40.50;19.80;;;;;;;-1.61;93.75;100157.04;107331;281;96550;-55
2023/12/03 05:53:50;;;;;;;43.90;20.10;;;;;;;-1.58;93.66;100160.02;107263;279;155683;-57
2023/12/03 05:56:33;;;;;;;39.30;18.40;;;;;;;-1.58;93.75;100167.02;107374;280;106073;-57
2023/12/03 05:59:12;;;;;;;41.90;18.60;;;;;;;-1.60;93.85;100170.89;107273;280;154578;-56
2023/12/03 06:01:48;;;;;;;38.70;18.40;;;;;;;-1.59;93.89;100175.23;107336;281;96286;-57
2023/12/03 06:04:25;;;;;;;42.20;20.50;;;;;;;-1.59;93.81;100179.08;107399;281;96680;-52
2023/12/03 06:07:04;;;;;;;42.90;20.70;;;;;;;-1.55;93.70;100180.58;107272;281;120867;-51
2023/12/03 06:09:43;;;;;;;41.60;19.90;;;;;;;-1.51;93.57;100183.27;107371;281;104680;-53
2023/12/03 06:12:25;;;;;;;39.90;20.20;;;;;;;-1.53;93.52;100189.03;107193;281;156190;-53
2023/12/03 06:14:59;;;;;;;43.40;20.00;;;;;;;-1.53;93.55;100190.48;107349;281;94635;-51
2023/12/03 06:17:43;;;;;;;39.20;19.70;;;;;;;-1.54;93.55;100197.41;107211;280;156066;-51
2023/12/03 06:20:21;;;;;;;41.10;18.80;;;;;;;-1.54;93.51;100200.64;107326;280;120719;-53
2023/12/03 06:22:57;;;;;;;40.00;19.10;;;;;;;-1.55;93.66;100205.29;107246;280;156070;-53
2023/12/03 06:25:33;;;;;;;43.60;20.60;;;;;;;-1.52;93.72;100206.48;107346;281;115329;-52
2023/12/03 06:28:08;;;;;;;43.80;22.10;;;;;;;-1.47;93.58;100211.75;107392;281;92218;-52
2023/12/03 06:30:48;;;;;;;42.90;20.80;;;;;;;-1.43;93.41;100211.73;107271;280;155432;-53
2023/12/03 06:33:29;;;;;;;40.10;19.50;;;;;;;-1.47;93.45;100217.50;107366;280;120201;-52
2023/12/03 06:36:09;;;;;;;43.50;19.80;;;;;;;-1.48;93.56;100216.73;107192;280;156225;-54
2023/12/03 06:38:48;;;;;;;42.50;20.20;;;;;;;-1.50;93.66;100218.50;107350;281;114546;-53
2023/12/03 06:41:32;;;;;;;42.30;21.50;;;;;;;-1.50;93.72;100218.88;107235;280;155182;-52
2023/12/03 06:44:10;;;;;;;44.10;20.10;;;;;;;-1.50;93.76;100218.35;107350;280;100050;-54
2023/12/03 06:46:52;;;;;;;41.00;20.70;;;;;;;-1.44;93.78;100228.11;107186;280;154987;-54
2023/12/03 06:49:31;;;;;;;43.10;20.70;;;;;;;-1.39;93.61;100227.30;107354;281;105896;-55
2023/12/03 06:52:09;;;;;;;46.60;21.20;;;;;;;-1.39;93.67;100230.52;107348;281;113027;-54
2023/12/03 06:54:47;;;;;;;43.20;22.00;;;;;;;-1.40;93.72;100229.16;107261;280;155090;-52
2023/12/03 06:57:34;;;;;;;40.80;21.30;;;;;;;-1.30;93.67;100233.56;107382;280;97498;-51
2023/12/03 07:00:18;;;;;;;46.30;22.60;;;;;;;-1.24;93.50;100236.62;107205;280;154119;-52
2023/12/03 07:02:58;;;;;;;44.00;21.80;;;;;;;-1.25;93.52;100240.02;107330;281;103250;-52
2023/12/03 07:05:35;;;;;;;47.00;23.40;;;;;;;-1.22;93.40;100240.30;107110;280;155468;-54
2023/12/03 07:08:10;;;;;;;44.20;22.10;;;;;;;-1.19;93.36;100246.46;107377;280;96328;-56
2023/12/03 07:10:46;;;;;;;51.20;23.90;;;;;;;-1.16;93.18;100250.50;107218;280;155946;-58
2023/12/03 07:13:25;;;;;;;50.20;23.50;;;;;;;-1.17;93.29;100260.09;107345;281;121151;-55
2023/12/03 07:16:17;;;;;;;48.00;22.80;;;;;;;-1.16;93.29;100261.95;107357;281;104435;-52
2023/12/03 07:19:01;;;;;;;48.00;22.80;;;;;;;-1.13;93.31;100261.66;107205;280;155319;-57
2023/12/03 07:21:39;;;;;;;46.10;22.00;;;;;;;-1.07;93.23;100263.91;107349;280;95697;-58
2023/12/03 07:24:17;;;;;;;44.90;22.40;;;;;;;-1.07;93.14;100262.80;107229;280;155072;-52
2023/12/03 07:26:59;;;;;;;46.80;22.40;;;;;;;-1.03;93.06;100259.67;107340;281;120281;-53
2023/12/03 07:29:41;;;;;;;51.50;24.70;;;;;;;-1.04;93.16;100263.66;107257;280;155090;-52
2023/12/03 07:32:18;;;;;;;46.70;22.80;;;;;;;-1.02;93.32;100266.16;107332;280;113592;-51
2023/12/03 07:34:57;;;;;;;48.10;23.60;;;;;;;-0.99;93.20;100263.80;107279;280;154778;-50
2023/12/03 07:37:42;;;;;;;43.60;20.90;;;;;;;-0.96;93.30;100263.52;107387;281;96262;-50
2023/12/03 07:40:19;;;;;;;45.10;22.20;;;;;;;-0.87;93.01;100265.67;107361;281;120546;-55
2023/12/03 07:43:02;;;;;;;44.30;21.70;;;;;;;-0.90;92.95;100269.56;107271;280;154189;-52
2023/12/03 07:45:47;;;;;;;43.70;21.20;;;;;;;-0.88;92.85;100271.75;107360;280;114225;-53
2023/12/03 07:48:30;;;;;;;43.70;20.90;;;;;;;-0.89;92.98;100271.45;107193;280;157228;-53
2023/12/03 07:51:11;;;;;;;42.60;21.10;;;;;;;-0.86;92.99;100276.03;107377;281;97529;-55
2023/12/03 07:53:48;;;;;;;40.50;20.00;;;;;;;-0.85;92.88;100279.06;107258;280;154895;-56
2023/12/03 07:56:36;;;;;;;40.20;20.40;;;;;;;-0.79;92.77;100277.06;107381;280;105895;-58
2023/12/03 07:59:16;;;;;;;35.60;19.70;;;;;;;-0.77;92.89;100273.55;107221;280;154860;-54
2023/12/03 08:01:50;;;;;;;37.40;19.80;;;;;;;-0.74;92.85;100273.46;107338;281;95711;-54
2023/12/03 08:04:23;;;;;;;;;;;;;;;-0.62;92.74;100278.30;107416;281;96932;-57
2023/12/03 08:07:05;;;;;;;38.40;19.50;;;;;;;-0.64;92.67;100281.87;107232;282;121547;-57
2023/12/03 08:09:45;;;;;;;41.20;20.70;;;;;;;-0.67;92.69;100283.84;107400;281;106009;-58
2023/12/03 08:12:20;;;;;;;39.30;21.00;;;;;;;-0.66;92.67;100288.01;107191;282;155665;-57
2023/12/03 08:14:58;;;;;;;40.30;20.70;;;;;;;-0.65;92.82;100292.91;107373;281;93310;-57
2023/12/03 08:17:38;;;;;;;40.90;19.50;;;;;;;-0.59;92.83;100293.50;107231;281;154889;-56
2023/12/03 08:20:14;;;;;;;37.70;20.20;;;;;;;-0.54;92.90;100294.01;107388;281;120793;-53
2023/12/03 08:22:57;;;;;;;39.60;21.60;;;;;;;-0.48;92.80;100299.16;107086;281;154940;-53
2023/12/03 08:25:35;;;;;;;39.70;20.80;;;;;;;-0.40;92.69;100301.71;107349;281;114504;-58
2023/12/03 08:28:13;;;;;;;43.30;21.00;;;;;;;-0.33;92.84;100305.70;107350;281;95476;-58
2023/12/03 08:30:52;;;;;;;39.50;21.60;;;;;;;-0.20;92.58;100308.23;107341;280;154192;-52
2023/12/03 08:33:29;;;;;;;38.70;21.30;;;;;;;-0.14;92.37;100308.05;107387;281;121140;-52
2023/12/03 08:36:09;;;;;;;36.30;20.60;;;;;;;-0.08;92.39;100308.14;107252;281;154617;-57
2023/12/03 08:38:50;;;;;;;35.40;20.40;;;;;;;-0.02;92.36;100312.20;107362;281;114985;-56
2023/12/03 08:41:32;;;;;;;36.70;19.50;;;;;;;0.04;92.16;100319.16;107104;282;154594;-57
2023/12/03 08:44:12;;;;;;;33.40;19.50;;;;;;;0.12;92.06;100319.97;107357;281;97113;-53
2023/12/03 08:46:59;;;;;;;33.50;18.00;;;;;;;0.11;91.85;100319.84;107202;281;156355;-53
2023/12/03 08:49:43;;;;;;;33.70;18.90;;;;;;;0.13;91.77;100323.36;107266;282;105175;-52
2023/12/03 08:52:31;;;;;;;34.70;18.50;;;;;;;0.19;91.74;100327.86;107314;281;115287;-52
2023/12/03 08:55:11;;;;;;;36.70;19.00;;;;;;;0.27;91.52;100332.10;107304;281;94145;-52
2023/12/03 08:57:55;;;;;;;34.20;18.70;;;;;;;0.22;91.54;100338.77;107340;281;96768;-54
2023/12/03 09:00:33;;;;;;;;;;;;;;;0.22;91.43;100344.44;107302;280;154233;-53
2023/12/03 09:03:12;;;;;;;35.10;19.10;;;;;;;0.21;91.36;100346.10;107369;280;104252;-52
2023/12/03 09:05:55;;;;;;;31.40;18.20;;;;;;;0.13;91.13;100346.59;107176;280;154243;-52
2023/12/03 09:08:41;;;;;;;36.00;18.60;;;;;;;0.12;91.27;100351.92;107320;281;97544;-53
2023/12/03 09:11:22;;;;;;;29.90;18.20;;;;;;;0.18;91.16;100352.40;107205;281;154510;-57
2023/12/03 09:14:01;;;;;;;30.50;18.00;;;;;;;0.22;91.18;100355.73;107354;280;120972;-52
2023/12/03 09:16:40;;;;;;;37.70;20.10;;;;;;;0.22;91.22;100357.67;107258;280;154999;-54
2023/12/03 09:19:21;;;;;;;34.50;18.60;;;;;;;0.30;91.15;100353.30;107347;281;114750;-55
2023/12/03 09:22:01;;;;;;;36.60;21.10;;;;;;;0.26;91.11;100350.84;107355;281;93329;-54
2023/12/03 09:24:38;;;;;;;36.70;20.50;;;;;;;0.28;91.13;100355.61;107259;281;154185;-57
2023/12/03 09:27:15;;;;;;;38.10;21.10;;;;;;;0.31;91.10;100361.23;107369;280;121012;-56
2023/12/03 09:29:54;;;;;;;40.00;21.90;;;;;;;0.26;91.09;100363.19;107240;280;154157;-52
2023/12/03 09:32:39;;;;;;;34.50;20.20;;;;;;;0.22;91.04;100366.34;107326;281;113543;-51
2023/12/03 09:35:17;;;;;;;39.90;20.70;;;;;;;0.20;91.00;100369.35;107223;281;156118;-54
2023/12/03 09:37:58;;;;;;;42.50;21.10;;;;;;;0.27;90.99;100370.23;107316;280;98058;-54
2023/12/03 09:40:34;;;;;;;42.20;22.30;;;;;;;0.29;90.92;100373.06;107385;280;120755;-54
2023/12/03 09:43:14;;;;;;;43.20;21.70;;;;;;;0.32;91.03;100373.35;107133;282;105195;-55
2023/12/03 09:46:02;;;;;;;41.60;20.80;;;;;;;0.44;90.92;100375.86;107360;281;114806;-56
2023/12/03 09:48:45;;;;;;;38.40;19.50;;;;;;;0.50;90.93;100369.35;107114;282;154760;-54
2023/12/03 09:51:27;;;;;;;41.90;21.90;;;;;;;0.48;90.95;100369.83;107371;281;96218;-54
2023/12/03 09:54:14;;;;;;;43.00;22.60;;;;;;;0.54;90.81;100367.77;107239;280;154015;-52
2023/12/03 09:57:06;;;;;;;44.50;22.80;;;;;;;0.59;90.84;100370.49;107345;280;106160;-53
2023/12/03 09:59:57;;;;;;;45.60;22.90;;;;;;;0.58;90.70;100374.46;107230;280;155393;-54
2023/12/03 10:02:47;;;;;;;47.50;23.30;;;;;;;0.55;90.84;100373.52;107295;281;96072;-54
2023/12/03 10:05:30;;;;;;;46.10;22.70;;;;;;;0.46;90.99;100371.95;107237;281;155125;-54
2023/12/03 10:08:08;;;;;;;46.40;21.90;;;;;;;0.51;90.73;100373.55;107351;280;121497;-55
2023/12/03 10:10:54;;;;;;;45.60;21.10;;;;;;;0.45;90.84;100372.63;107269;280;156271;-55
2023/12/03 10:13:37;;;;;;;44.90;21.70;;;;;;;0.39;90.82;100377.89;107368;281;112983;-55
2023/12/03 10:16:20;;;;;;;47.40;23.60;;;;;;;0.38;90.93;100380.58;107362;281;95732;-53
2023/12/03 10:19:03;;;;;;;44.40;22.40;;;;;;;0.51;90.86;100385.61;107227;280;154648;-57
2023/12/03 10:21:50;;;;;;;47.00;22.60;;;;;;;0.49;90.70;100386.22;107406;280;120577;-57
2023/12/03 10:24:34;;;;;;;47.40;23.00;;;;;;;0.43;90.74;100390.98;107198;280;154360;-52
2023/12/03 10:27:19;;;;;;;46.30;23.30;;;;;;;0.43;90.82;100392.63;107319;281;114399;-52
2023/12/03 10:30:01;;;;;;;50.30;24.40;;;;;;;0.48;90.81;100394.86;107227;281;154088;-57
2023/12/03 10:32:39;;;;;;;45.50;21.90;;;;;;;0.52;90.94;100396.41;107371;280;97328;-57
2023/12/03 10:35:17;;;;;;;47.80;25.00;;;;;;;0.55;90.90;100396.25;107256;280;156203;-56
2023/12/03 10:37:57;;;;;;;46.00;23.80;;;;;;;0.60;90.84;100398.08;107375;281;104220;-56
2023/12/03 10:40:39;;;;;;;51.40;23.90;;;;;;;0.58;90.90;100403.76;107294;281;114477;-51
2023/12/03 10:43:18;;;;;;;46.40;22.90;;;;;;;0.59;90.84;100406.53;107257;281;94908;-51
2023/12/03 10:45:59;;;;;;;47.70;24.50;;;;;;;0.67;90.85;100406.63;107371;281;97206;-53
2023/12/03 10:48:41;;;;;;;46.90;23.40;;;;;;;0.62;90.98;100412.88;107089;281;153900;-54
2023/12/03 10:51:18;;;;;;;47.70;24.00;;;;;;;0.68;90.90;100411.64;107401;281;105913;-55
2023/12/03 10:54:02;;;;;;;48.40;23.30;;;;;;;0.70;90.93;100411.69;107113;280;154260;-52
2023/12/03 10:56:50;;;;;;;49.60;23.80;;;;;;;0.66;91.16;100412.36;107302;280;94347;-54
2023/12/03 10:59:34;;;;;;;57.20;27.40;;;;;;;0.69;91.24;100412.11;107250;280;154717;-54
2023/12/03 11:02:13;;;;;;;50.10;25.30;;;;;;;0.72;90.98;100414.17;107332;280;120209;-53
2023/12/03 11:05:00;;;;;;;49.80;24.80;;;;;;;0.75;91.09;100415.27;107224;281;155040;-53
2023/12/03 11:07:41;;;;;;;52.70;25.10;;;;;;;0.73;91.01;100417.96;107343;281;112892;-53
2023/12/03 11:10:20;;;;;;;53.50;26.80;;;;;;;0.80;91.06;100421.77;107334;281;94112;-54
2023/12/03 11:13:04;;;;;;;52.10;27.40;;;;;;;0.80;91.06;100421.85;107290;280;154288;-54
2023/12/03 11:15:47;;;;;;;47.40;27.00;;;;;;;0.78;91.14;100429.94;107381;281;120039;-53
2023/12/03 11:18:28;;;;;;;52.80;26.80;;;;;;;0.74;91.01;100429.75;107207;281;155102;-52
2023/12/03 11:21:15;;;;;;;54.00;27.60;;;;;;;0.69;90.92;100431.21;107348;281;114870;-54
2023/12/03 11:24:27;;;;;;;56.20;27.70;;;;;;;0.63;90.90;100432.27;107236;280;154961;-52
2023/12/03 11:27:08;;;;;;;55.60;28.10;;;;;;;0.64;91.08;100433.38;107253;281;98704;-49
2023/12/03 11:30:04;;;;;;;52.30;28.00;;;;;;;0.65;91.35;100438.83;107214;281;154778;-52
2023/12/03 11:32:52;;;;;;;59.20;28.90;;;;;;;0.70;91.33;100442.14;107328;281;103459;-52
2023/12/03 11:35:36;;;;;;;56.80;28.20;;;;;;;0.72;91.36;100440.90;107143;280;155203;-53
2023/12/03 11:38:35;;;;;;;54.00;27.40;;;;;;;0.79;91.36;100442.83;107337;280;96228;-52
2023/12/03 11:41:23;;;;;;;51.20;26.10;;;;;;;0.83;91.40;100444.80;107231;281;154936;-55
2023/12/03 11:44:23;;;;;;;52.40;26.80;;;;;;;0.85;91.55;100446.37;107361;281;120712;-50
2023/12/03 11:47:14;;;;;;;51.70;27.40;;;;;;;0.90;91.48;100451.79;107273;280;155369;-50
2023/12/03 11:49:50;;;;;;;55.20;29.30;;;;;;;0.95;91.47;100449.06;107270;281;114823;-50
2023/12/03 11:52:30;;;;;;;51.20;25.60;;;;;;;0.94;91.42;100449.72;107368;281;94788;-51
2023/12/03 11:55:27;;;;;;;52.60;26.00;;;;;;;0.90;91.36;100453.08;107344;281;97433;-52
2023/12/03 11:58:11;;;;;;;45.10;24.20;;;;;;;0.96;91.49;100452.52;107364;281;118247;-52
2023/12/03 12:00:52;;;;;;;54.70;27.60;;;;;;;0.97;91.45;100452.32;107315;280;155125;-56
2023/12/03 12:03:40;;;;;;;53.50;26.40;;;;;;;1.01;91.51;100453.92;107356;280;114450;-57
2023/12/03 12:06:26;;;;;;;48.50;25.00;;;;;;;1.06;91.37;100458.09;107019;282;155353;-54
2023/12/03 12:09:13;;;;;;;51.30;27.60;;;;;;;1.07;91.36;100459.02;107381;281;97730;-54
2023/12/03 12:12:00;;;;;;;54.40;26.70;;;;;;;1.12;91.35;100461.08;107136;282;154385;-51